Time;durP1;ratioP1;P1;durP2;ratioP2;P2;SDS_P1;SDS_P2;PMS_P1;PMS_P2;Temp;Humidity;BMP_temperature;BMP_pressure;BME280_temperature;BME280_humidity;BME280_pressure;Samples;Min_cycle;Max_cycle;Signal;HPM_P1;HPM_P2
2023/09/22 00:00:04;;;;;;;0.30;0.30;;;;;;;16.92;100.00;98771.72;4980945;28;20035;-61
2023/09/22 00:02:30;;;;;;;0.20;0.20;;;;;;;16.98;100.00;98788.22;4979581;28;20030;-61
2023/09/22 00:04:55;;;;;;;0.20;0.20;;;;;;;16.97;100.00;98794.59;4983237;28;20023;-61
2023/09/22 00:07:21;;;;;;;0.30;0.30;;;;;;;16.98;100.00;98795.44;4980240;28;20533;-61
2023/09/22 00:09:46;;;;;;;0.20;0.20;;;;;;;16.95;100.00;98793.00;4977350;28;20038;-61
2023/09/22 00:12:12;;;;;;;0.30;0.30;;;;;;;17.00;100.00;98798.88;4971872;28;20550;-61
2023/09/22 00:14:37;;;;;;;0.30;0.30;;;;;;;17.00;100.00;98793.50;4979817;28;20037;-61
2023/09/22 00:17:03;;;;;;;0.22;0.22;;;;;;;17.03;100.00;98804.84;4974899;28;20036;-61
2023/09/22 00:19:28;;;;;;;0.20;0.20;;;;;;;17.08;100.00;98796.44;4981241;28;20031;-61
2023/09/22 00:21:55;;;;;;;0.20;0.20;;;;;;;17.07;100.00;98794.72;4983406;28;20029;-61
2023/09/22 00:24:21;;;;;;;0.30;0.30;;;;;;;17.06;100.00;98793.03;4981730;28;20529;-61
2023/09/22 00:26:47;;;;;;;0.22;0.22;;;;;;;16.99;100.00;98792.66;4980067;28;20023;-59
2023/09/22 00:29:12;;;;;;;0.25;0.25;;;;;;;16.99;100.00;98787.28;4972452;28;20251;-59
2023/09/22 00:31:38;;;;;;;0.30;0.30;;;;;;;16.96;100.00;98787.50;4963893;28;20035;-59
2023/09/22 00:34:03;;;;;;;0.20;0.20;;;;;;;16.94;100.00;98783.22;4966655;28;20482;-59
2023/09/22 00:36:29;;;;;;;0.30;0.30;;;;;;;16.91;100.00;98778.97;4971710;28;20779;-59
2023/09/22 00:38:54;;;;;;;0.30;0.30;;;;;;;16.91;100.00;98788.84;4983540;28;20022;-62
2023/09/22 00:41:20;;;;;;;0.30;0.30;;;;;;;16.88;100.00;98792.63;4978921;28;20105;-61
2023/09/22 00:43:46;;;;;;;0.30;0.30;;;;;;;16.89;100.00;98798.84;4983534;28;20030;-62
2023/09/22 00:46:12;;;;;;;0.30;0.30;;;;;;;16.88;100.00;98795.31;4983162;28;20610;-61
2023/09/22 00:48:40;;;;;;;0.30;0.30;;;;;;;16.87;100.00;98808.84;4985255;28;20039;-61
2023/09/22 00:51:06;;;;;;;0.20;0.20;;;;;;;16.86;100.00;98818.75;4984557;28;20097;-62
2023/09/22 00:53:34;;;;;;;0.20;0.20;;;;;;;16.88;100.00;98816.81;4983405;28;20070;-62
2023/09/22 00:56:01;;;;;;;0.22;0.22;;;;;;;16.85;100.00;98805.44;4974995;28;20099;-62
2023/09/22 00:58:26;;;;;;;0.20;0.20;;;;;;;16.83;100.00;98804.69;4978245;28;20082;-62
2023/09/22 01:00:53;;;;;;;0.20;0.20;;;;;;;16.82;100.00;98784.16;4982093;28;20113;-62
2023/09/22 01:03:19;;;;;;;0.22;0.22;;;;;;;16.84;100.00;98792.97;4984931;28;20058;-61
2023/09/22 01:05:46;;;;;;;0.20;0.20;;;;;;;16.80;100.00;98807.63;4985465;28;20042;-61
2023/09/22 01:08:12;;;;;;;0.20;0.20;;;;;;;16.75;100.00;98820.53;4973058;28;20371;-62
2023/09/22 01:10:40;;;;;;;0.30;0.30;;;;;;;16.74;100.00;98832.25;4986155;28;20114;-62
2023/09/22 01:13:06;;;;;;;0.20;0.20;;;;;;;16.69;100.00;98829.03;4979627;28;20047;-62
2023/09/22 01:15:36;;;;;;;0.30;0.30;;;;;;;16.65;100.00;98832.94;4964583;29;20155;-62
2023/09/22 01:18:04;;;;;;;0.28;0.28;;;;;;;16.64;100.00;98844.66;4965964;29;20122;-62
2023/09/22 01:20:29;;;;;;;0.28;0.28;;;;;;;16.60;100.00;98860.16;4980410;28;20030;-62
2023/09/22 01:22:55;;;;;;;0.28;0.28;;;;;;;16.63;100.00;98856.38;4971114;28;20065;-62
2023/09/22 01:25:20;;;;;;;0.30;0.30;;;;;;;16.64;100.00;98841.97;4999823;28;20026;-62
2023/09/22 01:27:46;;;;;;;0.22;0.22;;;;;;;16.67;100.00;98823.78;4975694;28;20027;-61
2023/09/22 01:30:14;;;;;;;0.30;0.30;;;;;;;16.63;100.00;98794.63;4986145;28;20028;-61
2023/09/22 01:32:39;;;;;;;0.30;0.30;;;;;;;16.63;100.00;98773.13;4969383;28;20034;-62
2023/09/22 01:35:07;;;;;;;0.30;0.30;;;;;;;16.60;100.00;98759.97;4980472;28;20035;-62
2023/09/22 01:37:36;;;;;;;0.30;0.30;;;;;;;16.56;100.00;98766.53;4985175;28;20426;-62
2023/09/22 01:40:02;;;;;;;0.30;0.30;;;;;;;16.46;100.00;98768.19;4977243;28;20053;-62
2023/09/22 01:42:28;;;;;;;0.30;0.30;;;;;;;16.49;100.00;98778.72;4984224;28;20031;-62
2023/09/22 01:44:53;;;;;;;0.20;0.20;;;;;;;16.47;100.00;98773.47;4980364;28;20041;-62
2023/09/22 01:47:19;;;;;;;0.30;0.30;;;;;;;16.47;100.00;98756.50;4984548;28;20027;-62
2023/09/22 01:49:44;;;;;;;0.20;0.20;;;;;;;16.44;100.00;98728.00;4985249;28;20177;-62
2023/09/22 01:52:09;;;;;;;0.25;0.25;;;;;;;16.41;100.00;98739.00;4980962;28;20027;-62
2023/09/22 01:54:35;;;;;;;0.30;0.30;;;;;;;16.40;100.00;98763.25;4984451;28;20026;-62
2023/09/22 01:57:00;;;;;;;0.20;0.20;;;;;;;16.42;100.00;98772.06;4983142;28;20089;-62
2023/09/22 01:59:26;;;;;;;0.30;0.30;;;;;;;16.34;100.00;98763.75;4985425;28;20038;-62
2023/09/22 02:01:51;;;;;;;0.30;0.30;;;;;;;16.40;100.00;98792.78;4986706;28;20107;-62
2023/09/22 02:04:17;;;;;;;0.20;0.20;;;;;;;16.40;100.00;98787.41;4975112;28;20047;-62
2023/09/22 02:06:44;;;;;;;0.20;0.20;;;;;;;16.34;100.00;98766.44;4990524;28;20030;-62
2023/09/22 02:09:09;;;;;;;0.30;0.30;;;;;;;16.37;100.00;98766.19;4975395;28;20050;-62
2023/09/22 02:11:35;;;;;;;0.30;0.30;;;;;;;16.38;100.00;98779.50;4966393;28;20043;-62
2023/09/22 02:14:01;;;;;;;0.20;0.20;;;;;;;16.39;100.00;98773.13;4974120;28;20102;-62
2023/09/22 02:16:26;;;;;;;0.30;0.30;;;;;;;16.42;100.00;98798.91;4983862;28;20581;-62
2023/09/22 02:18:51;;;;;;;0.30;0.30;;;;;;;16.38;100.00;98821.56;4982231;28;20031;-62
2023/09/22 02:21:17;;;;;;;0.20;0.20;;;;;;;16.37;100.00;98811.81;4980181;28;20065;-62
2023/09/22 02:23:42;;;;;;;0.20;0.20;;;;;;;16.39;100.00;98812.56;4981407;28;20033;-62
2023/09/22 02:26:08;;;;;;;0.28;0.28;;;;;;;16.46;100.00;98808.44;4979904;28;20030;-62
2023/09/22 02:28:34;;;;;;;0.20;0.20;;;;;;;16.48;100.00;98811.88;4982077;28;20062;-62
2023/09/22 02:31:00;;;;;;;0.30;0.30;;;;;;;16.48;100.00;98785.03;4983080;28;20067;-62
2023/09/22 02:33:25;;;;;;;0.30;0.30;;;;;;;16.46;100.00;98771.75;4978960;28;20050;-62
2023/09/22 02:35:51;;;;;;;0.30;0.30;;;;;;;16.47;100.00;98764.56;4983080;28;20061;-62
2023/09/22 02:38:16;;;;;;;0.30;0.30;;;;;;;16.44;100.00;98754.03;4975270;28;20039;-62
2023/09/22 02:40:44;;;;;;;0.30;0.30;;;;;;;16.44;100.00;98765.59;4968203;28;20050;-62
2023/09/22 02:43:09;;;;;;;0.30;0.30;;;;;;;16.43;100.00;98781.81;4972201;28;20054;-62
2023/09/22 02:45:39;;;;;;;0.22;0.22;;;;;;;16.43;100.00;98792.56;4973392;28;20034;-62
2023/09/22 02:48:08;;;;;;;0.30;0.30;;;;;;;16.47;100.00;98773.47;4982805;28;20031;-62
2023/09/22 02:50:33;;;;;;;0.30;0.30;;;;;;;16.47;100.00;98764.56;4974471;28;20027;-62
2023/09/22 02:53:03;;;;;;;0.20;0.20;;;;;;;16.44;100.00;98745.97;4978797;28;20077;-62
2023/09/22 02:55:30;;;;;;;0.30;0.30;;;;;;;16.39;100.00;98748.97;4981809;28;20054;-62
2023/09/22 02:57:55;;;;;;;0.30;0.30;;;;;;;16.31;100.00;98747.88;4981171;28;20041;-62
2023/09/22 03:00:21;;;;;;;0.30;0.30;;;;;;;16.36;100.00;98749.22;4964901;29;20028;-62
2023/09/22 03:02:48;;;;;;;0.30;0.30;;;;;;;16.34;100.00;98771.78;4984582;28;20087;-62
2023/09/22 03:05:17;;;;;;;0.30;0.30;;;;;;;16.35;100.00;98794.97;4974708;28;20063;-62
2023/09/22 03:07:50;;;;;;;0.30;0.30;;;;;;;16.36;100.00;98807.44;4971255;29;20087;-62
2023/09/22 03:10:16;;;;;;;0.30;0.30;;;;;;;16.44;100.00;98799.66;4987260;28;20030;-62
2023/09/22 03:12:42;;;;;;;0.30;0.30;;;;;;;16.49;100.00;98792.16;4990358;28;20102;-62
2023/09/22 03:15:12;;;;;;;0.30;0.30;;;;;;;16.52;100.00;98818.75;4989050;28;20033;-62
2023/09/22 03:17:38;;;;;;;0.30;0.30;;;;;;;16.56;100.00;98825.59;4986048;28;20039;-62
2023/09/22 03:20:12;;;;;;;0.30;0.30;;;;;;;16.58;100.00;98820.97;4988145;28;20038;-62
2023/09/22 03:22:38;;;;;;;0.30;0.30;;;;;;;16.61;100.00;98823.41;4986268;28;20105;-62
2023/09/22 03:25:05;;;;;;;0.30;0.30;;;;;;;16.62;100.00;98817.09;4986050;28;20045;-62
2023/09/22 03:27:35;;;;;;;0.20;0.20;;;;;;;16.62;100.00;98803.66;4975890;28;20775;-62
2023/09/22 03:30:05;;;;;;;0.30;0.30;;;;;;;16.59;100.00;98790.47;4988655;28;20093;-61
2023/09/22 03:32:31;;;;;;;0.30;0.30;;;;;;;16.62;100.00;98779.50;4982457;28;20026;-62
2023/09/22 03:35:00;;;;;;;0.30;0.30;;;;;;;16.56;100.00;98782.63;4988575;28;20045;-62
2023/09/22 03:37:27;;;;;;;0.30;0.30;;;;;;;16.56;100.00;98761.16;4982228;28;20056;-62
2023/09/22 03:39:56;;;;;;;0.30;0.30;;;;;;;16.61;100.00;98767.03;4990414;28;20098;-62
2023/09/22 03:42:23;;;;;;;0.30;0.30;;;;;;;16.62;100.00;98774.13;4989371;28;20095;-62
2023/09/22 03:44:48;;;;;;;0.30;0.30;;;;;;;16.67;100.00;98780.00;4989046;28;20070;-62
2023/09/22 03:47:14;;;;;;;0.30;0.30;;;;;;;16.70;100.00;98782.44;4976406;28;20066;-62
2023/09/22 03:49:39;;;;;;;0.30;0.30;;;;;;;16.71;100.00;98774.28;4988237;28;20065;-62
2023/09/22 03:52:05;;;;;;;0.30;0.30;;;;;;;16.73;100.00;98760.72;4986395;28;20051;-62
2023/09/22 03:54:30;;;;;;;0.28;0.28;;;;;;;16.69;100.00;98762.78;4990876;28;20026;-62
2023/09/22 03:56:56;;;;;;;0.30;0.30;;;;;;;16.67;100.00;98780.00;4989504;28;20031;-62
2023/09/22 03:59:22;;;;;;;0.30;0.30;;;;;;;16.68;100.00;98781.69;4988587;28;20022;-62
2023/09/22 04:01:47;;;;;;;0.30;0.30;;;;;;;16.66;100.00;98767.53;4988978;28;20030;-62
2023/09/22 04:04:13;;;;;;;0.20;0.20;;;;;;;16.62;100.00;98766.91;4987887;28;20487;-62
2023/09/22 04:06:38;;;;;;;0.30;0.30;;;;;;;16.56;100.00;98772.75;4986469;28;20546;-62
2023/09/22 04:09:04;;;;;;;0.20;0.20;;;;;;;16.48;100.00;98779.69;4987893;28;20115;-62
2023/09/22 04:11:29;;;;;;;0.30;0.30;;;;;;;16.50;100.00;98788.47;4988777;28;20196;-62
2023/09/22 04:13:55;;;;;;;0.22;0.22;;;;;;;16.53;100.00;98777.50;4990023;28;20037;-62
2023/09/22 04:16:20;;;;;;;0.20;0.20;;;;;;;16.54;100.00;98776.53;5002279;28;20011;-62
2023/09/22 04:18:46;;;;;;;0.30;0.30;;;;;;;16.51;100.00;98780.31;4987124;28;20018;-62
2023/09/22 04:21:12;;;;;;;0.30;0.30;;;;;;;16.51;100.00;98777.63;4988296;28;20038;-62
2023/09/22 04:23:45;;;;;;;0.30;0.30;;;;;;;16.50;100.00;98780.41;4988646;28;20102;-62
2023/09/22 04:26:11;;;;;;;0.20;0.20;;;;;;;16.49;100.00;98792.16;4983713;28;20034;-62
2023/09/22 04:28:36;;;;;;;0.30;0.30;;;;;;;16.46;100.00;98805.78;4988794;28;20442;-62
2023/09/22 04:31:02;;;;;;;0.30;0.30;;;;;;;16.49;100.00;98829.72;4987717;28;20094;-62
2023/09/22 04:33:28;;;;;;;0.30;0.30;;;;;;;16.50;100.00;98831.44;4987823;28;20027;-62
2023/09/22 04:35:53;;;;;;;0.30;0.30;;;;;;;16.49;100.00;98846.66;4988286;28;20573;-62
2023/09/22 04:38:19;;;;;;;0.28;0.28;;;;;;;16.50;100.00;98836.78;4989300;28;20025;-62
2023/09/22 04:40:47;;;;;;;0.30;0.30;;;;;;;16.53;100.00;98831.19;4981842;28;20035;-62
2023/09/22 04:43:13;;;;;;;0.30;0.30;;;;;;;16.54;100.00;98833.75;4989016;28;20400;-62
2023/09/22 04:45:43;;;;;;;0.30;0.30;;;;;;;16.54;100.00;98840.97;4990176;28;20061;-62
2023/09/22 04:48:10;;;;;;;0.30;0.30;;;;;;;16.55;100.00;98840.00;4990111;28;20050;-62
2023/09/22 04:50:37;;;;;;;0.20;0.20;;;;;;;16.58;100.00;98837.94;4976508;28;20027;-62
2023/09/22 04:53:04;;;;;;;0.30;0.30;;;;;;;16.61;100.00;98818.91;4989404;28;20101;-62
2023/09/22 04:55:34;;;;;;;0.20;0.20;;;;;;;16.64;100.00;98818.66;4982032;28;20062;-62
2023/09/22 04:58:00;;;;;;;0.30;0.30;;;;;;;16.65;100.00;98823.06;4970910;29;20045;-62
2023/09/22 05:00:27;;;;;;;0.20;0.20;;;;;;;16.65;100.00;98822.22;4981771;28;20015;-62
2023/09/22 05:02:53;;;;;;;0.30;0.30;;;;;;;16.68;100.00;98830.03;4987147;28;20031;-62
2023/09/22 05:05:19;;;;;;;0.22;0.22;;;;;;;16.70;100.00;98830.78;4989082;28;20031;-62
2023/09/22 05:07:49;;;;;;;0.30;0.30;;;;;;;16.71;100.00;98836.03;4978800;28;20031;-62
2023/09/22 05:10:14;;;;;;;0.25;0.25;;;;;;;16.73;100.00;98844.84;4986403;28;20037;-62
2023/09/22 05:12:40;;;;;;;0.30;0.30;;;;;;;16.71;100.00;98868.25;4989420;28;20145;-62
2023/09/22 05:15:06;;;;;;;0.30;0.30;;;;;;;16.75;100.00;98885.00;4988698;28;20041;-62
2023/09/22 05:17:32;;;;;;;0.30;0.30;;;;;;;16.75;100.00;98874.25;4977814;28;20042;-59
2023/09/22 05:19:58;;;;;;;0.30;0.30;;;;;;;16.80;100.00;98889.03;4971456;28;20026;-59
2023/09/22 05:22:24;;;;;;;0.20;0.20;;;;;;;16.78;100.00;98891.00;4971094;28;20481;-59
2023/09/22 05:24:49;;;;;;;0.30;0.30;;;;;;;16.82;100.00;98902.34;4970402;28;20039;-60
2023/09/22 05:27:15;;;;;;;0.30;0.30;;;;;;;16.85;100.00;98896.75;4970749;28;20027;-59
2023/09/22 05:29:43;;;;;;;0.20;0.20;;;;;;;16.87;100.00;98894.78;4971077;28;20031;-59
2023/09/22 05:32:09;;;;;;;0.30;0.30;;;;;;;16.78;100.00;98906.25;4970923;28;20419;-59
2023/09/22 05:34:35;;;;;;;0.20;0.20;;;;;;;16.82;100.00;98905.03;4967743;28;20030;-60
2023/09/22 05:37:01;;;;;;;0.30;0.30;;;;;;;16.82;100.00;98897.81;4973182;28;20022;-59
2023/09/22 05:39:26;;;;;;;0.30;0.30;;;;;;;16.86;100.00;98903.84;4969745;28;20035;-60
2023/09/22 05:41:52;;;;;;;0.30;0.30;;;;;;;16.90;100.00;98905.31;4968628;28;20023;-59
2023/09/22 05:44:18;;;;;;;0.30;0.30;;;;;;;16.90;100.00;98906.16;4970872;28;20038;-59
2023/09/22 05:46:44;;;;;;;0.20;0.20;;;;;;;16.93;100.00;98910.47;4971039;28;20030;-59
2023/09/22 05:49:14;;;;;;;0.30;0.30;;;;;;;16.96;100.00;98921.84;4968642;28;20077;-59
2023/09/22 05:51:43;;;;;;;0.20;0.20;;;;;;;17.00;100.00;98925.16;4949298;28;20046;-58
2023/09/22 05:54:09;;;;;;;0.20;0.20;;;;;;;16.99;100.00;98947.59;4970710;28;20027;-59
2023/09/22 05:56:35;;;;;;;0.20;0.20;;;;;;;16.99;100.00;98948.47;4970709;28;20033;-59
2023/09/22 05:59:01;;;;;;;0.20;0.20;;;;;;;16.96;100.00;98943.31;4969879;28;20487;-59
2023/09/22 06:01:30;;;;;;;0.30;0.30;;;;;;;17.02;100.00;98940.16;4970291;28;20037;-59
2023/09/22 06:03:56;;;;;;;0.20;0.20;;;;;;;17.02;100.00;98933.91;4966847;28;20081;-59
2023/09/22 06:06:21;;;;;;;0.28;0.28;;;;;;;17.05;100.00;98931.00;4969365;28;20064;-59
2023/09/22 06:08:47;;;;;;;0.30;0.30;;;;;;;17.04;100.00;98914.03;4965988;28;20030;-59
2023/09/22 06:11:13;;;;;;;0.30;0.30;;;;;;;17.08;100.00;98883.25;4964518;28;20041;-59
2023/09/22 06:13:39;;;;;;;0.30;0.30;;;;;;;17.15;100.00;98897.09;4970439;28;20088;-59
2023/09/22 06:16:06;;;;;;;0.30;0.30;;;;;;;17.13;100.00;98907.13;4969891;28;20410;-59
2023/09/22 06:18:32;;;;;;;0.20;0.20;;;;;;;17.13;100.00;98923.25;4967105;28;20062;-59
2023/09/22 06:20:59;;;;;;;0.20;0.20;;;;;;;17.21;100.00;98925.31;4958277;28;20058;-59
2023/09/22 06:23:27;;;;;;;0.30;0.30;;;;;;;17.22;100.00;98944.03;4970029;28;20050;-59
2023/09/22 06:25:56;;;;;;;0.22;0.22;;;;;;;17.26;100.00;98948.19;4958784;28;20039;-59
2023/09/22 06:28:22;;;;;;;0.30;0.30;;;;;;;17.29;100.00;98929.16;4979672;28;20550;-62
2023/09/22 06:30:48;;;;;;;0.20;0.20;;;;;;;17.33;100.00;98917.16;4979296;28;20065;-62
2023/09/22 06:33:16;;;;;;;0.30;0.30;;;;;;;17.37;100.00;98921.34;4984058;28;20037;-62
2023/09/22 06:35:43;;;;;;;0.20;0.20;;;;;;;17.35;100.00;98925.97;4983600;28;20031;-62
2023/09/22 06:38:08;;;;;;;0.30;0.30;;;;;;;17.32;100.00;98936.97;4973848;28;20031;-62
2023/09/22 06:40:37;;;;;;;0.20;0.20;;;;;;;17.33;100.00;98938.66;4988538;28;20459;-62
2023/09/22 06:43:08;;;;;;;0.20;0.20;;;;;;;17.36;100.00;98935.78;4984551;28;20030;-62
2023/09/22 06:45:36;;;;;;;0.22;0.22;;;;;;;17.34;100.00;98948.47;4980105;28;20038;-62
2023/09/22 06:48:05;;;;;;;0.30;0.30;;;;;;;17.40;100.00;98947.97;4988657;28;20030;-62
2023/09/22 06:50:37;;;;;;;0.20;0.20;;;;;;;17.42;100.00;98937.09;4985891;28;20071;-62
2023/09/22 06:53:03;;;;;;;0.20;0.20;;;;;;;17.44;100.00;98944.09;4988984;28;20089;-61
2023/09/22 06:55:30;;;;;;;0.30;0.30;;;;;;;17.39;100.00;98932.84;4982203;28;20038;-62
2023/09/22 06:57:58;;;;;;;0.20;0.20;;;;;;;17.47;100.00;98957.31;4980255;28;20026;-61
2023/09/22 07:00:28;;;;;;;0.20;0.20;;;;;;;17.47;100.00;98959.16;4987056;28;20038;-62
2023/09/22 07:02:54;;;;;;;0.30;0.30;;;;;;;17.45;100.00;98961.97;4971992;28;20045;-62
2023/09/22 07:05:19;;;;;;;0.20;0.20;;;;;;;17.47;100.00;98946.56;4988397;28;20050;-62
2023/09/22 07:07:45;;;;;;;0.30;0.30;;;;;;;17.51;100.00;98953.41;4992360;28;20102;-62
2023/09/22 07:10:10;;;;;;;0.20;0.20;;;;;;;17.53;100.00;98945.25;4991191;28;20039;-62
2023/09/22 07:12:37;;;;;;;0.20;0.20;;;;;;;17.67;100.00;98940.50;4988535;28;20039;-62
2023/09/22 07:15:03;;;;;;;0.20;0.20;;;;;;;17.82;100.00;98933.91;4973365;28;20034;-62
2023/09/22 07:17:29;;;;;;;0.20;0.20;;;;;;;17.94;100.00;98949.06;4969323;28;20038;-62
2023/09/22 07:19:54;;;;;;;0.20;0.20;;;;;;;18.06;100.00;98940.03;4988181;28;20487;-62
2023/09/22 07:22:19;;;;;;;0.30;0.30;;;;;;;18.11;100.00;98940.53;4987970;28;20030;-62
2023/09/22 07:24:45;;;;;;;0.30;0.30;;;;;;;18.13;100.00;98943.94;4980212;28;20546;-62
2023/09/22 07:27:10;;;;;;;0.20;0.20;;;;;;;18.04;100.00;98950.06;4978776;28;20018;-62
2023/09/22 07:29:36;;;;;;;0.20;0.20;;;;;;;17.97;100.00;98964.97;4993922;28;20118;-62
2023/09/22 07:32:01;;;;;;;0.20;0.20;;;;;;;17.89;100.00;98966.56;4981917;28;20039;-62
2023/09/22 07:34:28;;;;;;;0.20;0.20;;;;;;;17.88;100.00;98975.59;4971291;28;20054;-62
2023/09/22 07:36:53;;;;;;;0.20;0.20;;;;;;;17.94;100.00;98973.28;4985405;28;20030;-62
2023/09/22 07:39:19;;;;;;;0.20;0.20;;;;;;;17.96;100.00;98970.47;4989019;28;20026;-62
2023/09/22 07:41:45;;;;;;;0.20;0.20;;;;;;;17.99;100.00;98981.84;4986884;28;20507;-62
2023/09/22 07:44:10;;;;;;;0.20;0.20;;;;;;;18.04;100.00;98985.03;4988818;28;20042;-62
2023/09/22 07:46:36;;;;;;;0.20;0.20;;;;;;;18.09;100.00;98974.75;4987823;28;20034;-62
2023/09/22 07:49:01;;;;;;;0.20;0.20;;;;;;;18.13;100.00;98981.63;4987992;28;20027;-62
2023/09/22 07:51:27;;;;;;;0.20;0.20;;;;;;;18.03;100.00;98969.88;4982149;28;20097;-62
2023/09/22 07:53:53;;;;;;;0.20;0.20;;;;;;;18.19;100.00;98981.13;4985620;28;20033;-62
2023/09/22 07:56:19;;;;;;;0.20;0.20;;;;;;;18.31;100.00;98984.69;4984069;28;20026;-62
2023/09/22 07:58:44;;;;;;;0.20;0.20;;;;;;;18.40;100.00;98983.13;4983045;28;20033;-62
2023/09/22 08:01:15;;;;;;;0.20;0.20;;;;;;;18.41;100.00;98998.28;4982349;28;20058;-62
2023/09/22 08:03:43;;;;;;;0.22;0.22;;;;;;;18.56;100.00;98988.97;4975362;28;20101;-62
2023/09/22 08:06:10;;;;;;;0.20;0.20;;;;;;;18.74;99.41;98993.72;4972921;28;20031;-62
2023/09/22 08:08:36;;;;;;;0.20;0.20;;;;;;;18.74;98.11;98992.84;4972984;28;20039;-62
2023/09/22 08:11:01;;;;;;;0.20;0.20;;;;;;;18.69;97.63;98985.16;4973767;28;20399;-62
2023/09/22 08:13:27;;;;;;;0.20;0.20;;;;;;;18.69;97.66;98989.69;4966245;28;20051;-62
2023/09/22 08:15:52;;;;;;;0.20;0.20;;;;;;;18.61;97.76;98987.63;4972821;28;20030;-62
2023/09/22 08:18:20;;;;;;;0.20;0.20;;;;;;;18.58;97.73;98992.41;4971804;28;20391;-62
2023/09/22 08:20:46;;;;;;;0.20;0.20;;;;;;;18.46;97.75;98998.78;4977961;28;20378;-62
2023/09/22 08:23:11;;;;;;;0.13;0.13;;;;;;;18.40;98.49;98994.75;4980016;28;20027;-62
2023/09/22 08:25:43;;;;;;;0.20;0.20;;;;;;;18.36;99.15;98998.63;4973380;28;20038;-62
2023/09/22 08:28:12;;;;;;;0.20;0.20;;;;;;;18.41;99.68;98996.47;4968325;28;20031;-62
2023/09/22 08:30:41;;;;;;;0.20;0.20;;;;;;;18.48;99.56;99002.22;4961181;28;20042;-62
2023/09/22 08:33:08;;;;;;;0.20;0.20;;;;;;;18.60;97.85;99001.22;4973674;28;20034;-63
2023/09/22 08:35:33;;;;;;;0.20;0.20;;;;;;;18.81;97.35;99010.25;4972562;28;20033;-62
2023/09/22 08:38:00;;;;;;;0.20;0.20;;;;;;;18.87;96.25;99001.66;4964165;28;20479;-62
2023/09/22 08:40:26;;;;;;;0.20;0.20;;;;;;;18.91;95.17;98995.03;4964090;28;20031;-62
2023/09/22 08:42:55;;;;;;;0.20;0.20;;;;;;;19.09;96.11;99006.97;4972407;28;20584;-62
2023/09/22 08:45:21;;;;;;;0.20;0.20;;;;;;;19.36;96.26;99002.00;4970944;28;20037;-62
2023/09/22 08:47:48;;;;;;;0.20;0.20;;;;;;;19.92;95.20;99010.66;4955447;28;20493;-62
2023/09/22 08:50:15;;;;;;;0.17;0.17;;;;;;;20.48;90.78;99015.53;4972257;28;20415;-62
2023/09/22 08:52:42;;;;;;;0.20;0.20;;;;;;;20.71;86.46;99011.63;4972764;28;20467;-62
2023/09/22 08:55:12;;;;;;;0.13;0.13;;;;;;;21.34;84.70;99006.78;4970107;28;20510;-62
2023/09/22 08:57:44;;;;;;;0.20;0.20;;;;;;;22.25;79.35;99010.69;4973757;28;20022;-63
2023/09/22 09:00:18;;;;;;;0.10;0.10;;;;;;;22.89;75.97;99014.28;4969786;28;20060;-62
2023/09/22 09:02:44;;;;;;;0.10;0.10;;;;;;;23.03;71.65;99004.78;4972577;28;20038;-63
2023/09/22 09:05:38;;;;;;;0.10;0.10;;;;;;;22.42;73.24;99004.47;4970578;28;20022;-62
2023/09/22 09:08:14;;;;;;;0.10;0.10;;;;;;;22.55;72.45;99010.47;4963164;28;20053;-63
2023/09/22 09:10:42;;;;;;;0.10;0.10;;;;;;;22.29;73.85;99014.78;4953825;28;20031;-63
2023/09/22 09:13:13;;;;;;;0.10;0.10;;;;;;;21.63;74.65;99015.78;4971815;28;20053;-62
2023/09/22 09:15:49;;;;;;;0.10;0.10;;;;;;;21.50;77.56;99016.03;4969258;28;20038;-63
2023/09/22 09:18:17;;;;;;;0.10;0.10;;;;;;;21.22;76.04;99018.75;4971778;28;20030;-63
2023/09/22 09:20:45;;;;;;;0.20;0.20;;;;;;;21.36;77.40;99018.31;4971189;28;20548;-64
2023/09/22 09:23:21;;;;;;;0.10;0.10;;;;;;;21.85;76.28;99016.34;4969821;28;20022;-64
2023/09/22 09:25:47;;;;;;;0.10;0.10;;;;;;;22.87;75.11;98997.31;4969542;28;20113;-63
2023/09/22 09:28:15;;;;;;;0.10;0.10;;;;;;;23.67;71.87;99002.75;4969680;28;20190;-63
2023/09/22 09:30:54;;;;;;;0.10;0.10;;;;;;;23.90;68.76;99000.38;4970068;28;20074;-63
2023/09/22 09:33:20;;;;;;;0.10;0.10;;;;;;;24.93;66.29;99006.63;4969470;28;20396;-63
2023/09/22 09:35:46;;;;;;;0.10;0.10;;;;;;;25.06;60.95;99002.41;4970720;28;20467;-63
2023/09/22 09:38:12;;;;;;;0.10;0.10;;;;;;;25.48;60.36;98995.06;4970580;28;20037;-64
2023/09/22 09:40:38;;;;;;;0.10;0.10;;;;;;;25.71;60.92;99001.56;4967888;28;20122;-64
2023/09/22 09:43:10;;;;;;;0.10;0.10;;;;;;;26.20;58.17;98999.66;4969837;28;20118;-64
2023/09/22 09:45:57;;;;;;;0.10;0.10;;;;;;;26.40;55.84;98989.22;4970005;28;20059;-64
2023/09/22 09:48:24;;;;;;;0.10;0.10;;;;;;;26.81;56.00;98993.53;4967823;28;20750;-65
2023/09/22 09:50:52;;;;;;;0.10;0.10;;;;;;;26.82;54.19;98984.34;4969109;28;20030;-64
2023/09/22 09:53:37;;;;;;;0.10;0.10;;;;;;;26.87;52.96;98992.84;4969417;28;20039;-64
2023/09/22 09:56:05;;;;;;;0.05;0.05;;;;;;;26.65;52.82;98990.84;4967418;28;20030;-63
2023/09/22 09:58:32;;;;;;;0.10;0.10;;;;;;;26.51;54.40;98997.03;4975102;28;20117;-64
2023/09/22 10:01:00;;;;;;;0.10;0.10;;;;;;;26.45;54.76;98993.16;4969987;28;20026;-64
2023/09/22 10:03:26;;;;;;;0.00;0.00;;;;;;;26.99;51.98;99002.34;4967371;28;20030;-64
2023/09/22 10:05:52;;;;;;;0.10;0.10;;;;;;;26.92;54.22;98980.34;4970169;28;20134;-64
2023/09/22 10:08:22;;;;;;;0.10;0.10;;;;;;;26.82;53.26;98985.19;4968966;28;20049;-64
2023/09/22 10:10:52;;;;;;;0.00;0.00;;;;;;;26.75;54.84;98984.22;4969173;28;20403;-63
2023/09/22 10:13:18;;;;;;;0.10;0.10;;;;;;;27.35;52.54;98986.31;4969876;28;20082;-64
2023/09/22 10:15:57;;;;;;;0.03;0.03;;;;;;;26.88;49.80;98992.69;4970411;28;20499;-64
2023/09/22 10:18:46;;;;;;;0.10;0.10;;;;;;;26.68;51.81;98990.53;4970386;28;20040;-64
2023/09/22 10:21:30;;;;;;;0.10;0.10;;;;;;;26.36;49.69;99001.53;4970741;28;20402;-64
2023/09/22 10:24:17;;;;;;;0.10;0.10;;;;;;;25.55;51.57;98989.81;4970889;28;20031;-65
2023/09/22 10:26:55;;;;;;;0.10;0.10;;;;;;;25.83;50.09;98993.91;4969612;28;20034;-63
2023/09/22 10:29:41;;;;;;;0.10;0.10;;;;;;;25.32;50.76;98983.28;4970819;28;20097;-63
2023/09/22 10:32:18;;;;;;;0.10;0.10;;;;;;;24.91;51.25;98993.19;4974642;28;20034;-64
2023/09/22 10:34:51;;;;;;;0.10;0.10;;;;;;;24.46;54.55;98984.47;4973251;28;20027;-64
2023/09/22 10:37:18;;;;;;;0.10;0.10;;;;;;;24.02;54.27;98971.97;4975921;28;20037;-63
2023/09/22 10:39:58;;;;;;;0.10;0.10;;;;;;;23.90;55.38;98981.38;4973236;28;20050;-63
2023/09/22 10:42:25;;;;;;;0.10;0.10;;;;;;;24.00;56.10;98968.56;4976944;28;20113;-64
2023/09/22 10:44:55;;;;;;;0.10;0.10;;;;;;;24.52;56.47;98967.50;4977679;28;20405;-63
2023/09/22 10:47:21;;;;;;;0.10;0.10;;;;;;;25.61;53.08;98961.88;4972284;28;20034;-64
2023/09/22 10:49:46;;;;;;;0.10;0.10;;;;;;;26.15;47.72;98957.59;4970909;28;20093;-64
2023/09/22 10:52:17;;;;;;;0.10;0.10;;;;;;;26.28;48.84;98963.34;4971921;28;20027;-64
2023/09/22 10:54:43;;;;;;;0.10;0.10;;;;;;;26.09;48.39;98966.47;4971462;28;20031;-63
2023/09/22 10:57:21;;;;;;;0.10;0.10;;;;;;;26.24;47.46;98975.63;4971037;28;20037;-64
2023/09/22 10:59:47;;;;;;;0.10;0.10;;;;;;;26.10;48.02;98969.00;4971916;28;20035;-64
2023/09/22 11:02:21;;;;;;;0.10;0.10;;;;;;;26.16;50.36;98964.75;4971324;28;20086;-64
2023/09/22 11:04:48;;;;;;;0.10;0.10;;;;;;;25.62;49.21;98967.16;4969883;28;20026;-64
2023/09/22 11:07:32;;;;;;;0.10;0.10;;;;;;;24.95;50.63;98977.38;4973649;28;20089;-61
2023/09/22 11:09:58;;;;;;;0.10;0.10;;;;;;;24.82;50.77;98975.16;4967509;28;20065;-61
2023/09/22 11:12:26;;;;;;;0.10;0.10;;;;;;;24.79;53.99;98978.19;4966258;28;20050;-61
2023/09/22 11:14:53;;;;;;;0.10;0.10;;;;;;;24.41;52.72;98978.66;4952245;28;20022;-60
2023/09/22 11:17:19;;;;;;;0.10;0.10;;;;;;;23.85;54.31;98970.97;4968494;28;20093;-60
2023/09/22 11:19:51;;;;;;;0.10;0.10;;;;;;;23.72;56.36;98969.69;4967513;28;20023;-60
2023/09/22 11:22:17;;;;;;;0.10;0.10;;;;;;;23.52;56.69;98965.44;4962335;28;20018;-59
2023/09/22 11:24:44;;;;;;;0.10;0.10;;;;;;;22.88;56.68;98968.34;4969831;28;20129;-61
2023/09/22 11:27:10;;;;;;;0.10;0.10;;;;;;;22.68;60.56;98970.31;4969197;28;20103;-59